Troy, South Dakota
Current Conditions -  °F | °C
As of 12:53 PM on Friday 31 Oct 2014 (Local Time) from KATY Reporting Station
Clear Clear  
Wind Chill: 26°   Ceiling: Unl
Heat Index: 32°   Visibility: 10mi
Dew Point: 19°   Wind: 7mph
Humidity: 59%   Direction: NA
Pressure: 30.53"   Gusts: NA
Location:  45.0202°N, 96.8218°W
Report Text: KATY 311753Z AUTO VRB06KT 10SM CLR 00/M07 A3053 RMK AO2 SLP364 T00001072 10006 21100 58012
Loading
Personal Weather Stations






























Interactive Weather Map
Tropical Storm Tracking
New forecast layout! Learn more

10-Day Weather Forecast

Advertisements
Track Severe Weather on mobile